Time;durP1;ratioP1;P1;durP2;ratioP2;P2;SDS_P1;SDS_P2;PMS_P1;PMS_P2;Temp;Humidity;BMP_temperature;BMP_pressure;BME280_temperature;BME280_humidity;BME280_pressure;Samples;Min_cycle;Max_cycle;Signal;HPM_P1;HPM_P2
2022/08/02 00:01:54;;;;;;;7.20;1.60;;;41.50;40.10;;;;;;5027823;28;20061;-65
2022/08/02 00:04:20;;;;;;;7.22;1.75;;;41.60;39.70;;;;;;5015694;28;20410;-64
2022/08/02 00:06:47;;;;;;;3.13;1.45;;;41.40;40.10;;;;;;5027383;28;20051;-66
2022/08/02 00:09:13;;;;;;;14.00;2.47;;;41.30;40.50;;;;;;5025621;28;20077;-65
2022/08/02 00:11:40;;;;;;;10.07;1.48;;;41.30;40.30;;;;;;5017108;28;20063;-63
2022/08/02 00:14:06;;;;;;;9.48;1.73;;;41.10;40.10;;;;;;5022164;28;20528;-65
2022/08/02 00:16:33;;;;;;;8.15;1.60;;;40.90;40.60;;;;;;5017191;28;20502;-63
2022/08/02 00:18:59;;;;;;;7.95;1.77;;;40.70;40.30;;;;;;5014990;28;21058;-64
2022/08/02 00:21:25;;;;;;;12.70;1.70;;;40.60;41.00;;;;;;5014667;28;20061;-64
2022/08/02 00:23:52;;;;;;;7.53;1.67;;;40.50;40.90;;;;;;5018677;28;20070;-64
2022/08/02 00:26:18;;;;;;;10.52;1.70;;;40.50;40.30;;;;;;5016450;28;20070;-64
2022/08/02 00:28:45;;;;;;;7.30;1.80;;;40.40;40.50;;;;;;5012763;28;20548;-64
2022/08/02 00:31:11;;;;;;;7.78;1.60;;;40.20;40.90;;;;;;5012968;28;20105;-63
2022/08/02 00:33:37;;;;;;;7.00;1.73;;;40.10;41.00;;;;;;5015808;28;20176;-64
2022/08/02 00:36:04;;;;;;;11.82;1.98;;;39.90;41.20;;;;;;5016558;28;20155;-65
2022/08/02 00:38:30;;;;;;;7.75;1.38;;;39.70;41.40;;;;;;5018771;28;20080;-65
2022/08/02 00:40:57;;;;;;;8.35;1.70;;;39.60;41.70;;;;;;5031491;28;20081;-65
2022/08/02 00:43:23;;;;;;;9.73;1.55;;;39.50;42.30;;;;;;5015775;28;20526;-66
2022/08/02 00:45:50;;;;;;;9.70;1.60;;;39.40;42.30;;;;;;5025921;28;20077;-65
2022/08/02 00:48:16;;;;;;;13.93;1.75;;;39.30;42.80;;;;;;5017911;28;20101;-63
2022/08/02 00:50:42;;;;;;;10.25;1.77;;;39.30;42.80;;;;;;5028403;28;20071;-65
2022/08/02 00:53:10;;;;;;;12.05;1.83;;;39.10;43.10;;;;;;5015954;28;20083;-64
2022/08/02 00:55:38;;;;;;;13.25;1.65;;;39.00;43.20;;;;;;5020210;28;20246;-65
2022/08/02 00:58:05;;;;;;;9.48;1.67;;;39.00;43.50;;;;;;5016597;28;20173;-63
2022/08/02 01:00:31;;;;;;;18.60;2.03;;;38.90;43.70;;;;;;5017076;28;20095;-64
2022/08/02 01:02:58;;;;;;;19.17;2.28;;;38.80;44.60;;;;;;5023311;28;20586;-65
2022/08/02 01:05:24;;;;;;;20.40;2.17;;;38.70;45.10;;;;;;5016172;28;20736;-68
2022/08/02 01:07:50;;;;;;;11.48;1.80;;;38.50;45.30;;;;;;5015326;28;20128;-68
2022/08/02 01:10:17;;;;;;;19.67;2.15;;;38.40;45.70;;;;;;5014851;28;20130;-68
2022/08/02 01:12:44;;;;;;;14.95;2.15;;;38.30;45.90;;;;;;5015950;28;20110;-67
2022/08/02 01:15:11;;;;;;;15.82;1.88;;;38.20;46.00;;;;;;5033555;28;20063;-69
2022/08/02 01:17:48;;;;;;;9.20;2.17;;;38.20;45.90;;;;;;5027232;28;20096;-69
2022/08/02 01:20:14;;;;;;;11.18;2.55;;;38.00;45.80;;;;;;5011826;28;20524;-68
2022/08/02 01:23:03;;;;;;;18.58;2.60;;;38.00;45.70;;;;;;5017334;28;20091;-68
2022/08/02 01:25:59;;;;;;;16.75;2.63;;;37.90;45.80;;;;;;5027302;28;20081;-68
2022/08/02 01:28:42;;;;;;;;;;;37.90;45.90;;;;;;5030314;28;20082;-69
2022/08/02 01:31:32;;;;;;;10.48;2.33;;;37.80;45.90;;;;;;5009621;28;19983;-68
2022/08/02 01:34:02;;;;;;;7.50;1.88;;;37.80;46.00;;;;;;5027274;28;20073;-67
2022/08/02 01:36:33;;;;;;;7.82;1.88;;;37.70;46.00;;;;;;5027702;28;20531;-70
2022/08/02 01:39:02;;;;;;;18.65;2.13;;;37.70;46.00;;;;;;5018650;28;20085;-68
2022/08/02 01:41:30;;;;;;;10.32;2.03;;;37.70;46.40;;;;;;5027462;28;20619;-70
2022/08/02 01:44:00;;;;;;;15.48;2.50;;;37.70;46.30;;;;;;5018093;28;20085;-70
2022/08/02 01:46:29;;;;;;;11.35;1.80;;;37.70;46.50;;;;;;5019627;28;20069;-71
2022/08/02 01:48:57;;;;;;;9.55;1.65;;;37.70;46.40;;;;;;5008200;28;20672;-71
2022/08/02 01:54:13;;;;;;;5.70;1.42;;;37.70;46.30;;;;;;5014362;28;20141;-67
2022/08/02 01:56:42;;;;;;;13.48;1.83;;;37.70;47.10;;;;;;5026005;28;20164;-70
2022/08/02 01:59:13;;;;;;;3.40;1.27;;;37.60;46.20;;;;;;5018530;28;20084;-70
2022/08/02 02:01:40;;;;;;;6.40;1.60;;;37.60;46.30;;;;;;5010088;28;20446;-70
2022/08/02 02:04:09;;;;;;;4.80;1.40;;;37.60;46.30;;;;;;5012060;28;20073;-69
2022/08/02 02:06:37;;;;;;;9.07;1.60;;;37.60;46.50;;;;;;5012025;28;20085;-70
2022/08/02 02:09:04;;;;;;;7.57;1.63;;;37.50;46.60;;;;;;5043762;28;20460;-67
2022/08/02 02:11:31;;;;;;;13.77;1.95;;;37.60;46.40;;;;;;5012228;28;20064;-70
2022/08/02 02:14:00;;;;;;;6.90;1.52;;;37.60;46.70;;;;;;5012325;28;20113;-67
2022/08/02 02:16:27;;;;;;;11.48;1.80;;;37.60;46.70;;;;;;5017288;28;20074;-70
2022/08/02 02:18:54;;;;;;;9.02;1.60;;;37.60;46.80;;;;;;5020687;28;20073;-69
2022/08/02 02:21:21;;;;;;;10.70;1.60;;;37.50;46.70;;;;;;5017781;28;20100;-67
2022/08/02 02:23:47;;;;;;;15.40;1.70;;;37.50;46.60;;;;;;5015617;28;20078;-69
2022/08/02 02:26:16;;;;;;;10.20;2.17;;;37.50;46.70;;;;;;5025916;28;20077;-67
2022/08/02 02:28:45;;;;;;;12.38;2.10;;;37.50;46.80;;;;;;5009440;28;20176;-68
2022/08/02 02:31:20;;;;;;;9.63;2.83;;;37.40;46.90;;;;;;5044705;28;20077;-69
2022/08/02 02:33:50;;;;;;;13.95;2.85;;;37.40;46.70;;;;;;5024990;28;20068;-71
2022/08/02 02:36:18;;;;;;;16.40;2.30;;;37.40;46.80;;;;;;5028251;28;20451;-68
2022/08/02 02:38:45;;;;;;;7.07;1.65;;;37.40;47.40;;;;;;4997965;28;20563;-69
2022/08/02 02:41:13;;;;;;;19.77;2.88;;;37.30;46.70;;;;;;5012260;28;20068;-68
2022/08/02 02:43:41;;;;;;;14.10;2.60;;;37.30;46.80;;;;;;5027507;28;20087;-69
2022/08/02 02:46:09;;;;;;;21.42;2.65;;;37.30;46.60;;;;;;5042265;28;20068;-69
2022/08/02 02:48:36;;;;;;;9.02;2.00;;;37.20;46.80;;;;;;5007886;28;20105;-68
2022/08/02 02:51:23;;;;;;;17.55;2.30;;;37.20;46.70;;;;;;5012692;28;20108;-69
2022/08/02 02:53:51;;;;;;;11.43;2.38;;;37.20;46.80;;;;;;5014884;28;20136;-68
2022/08/02 02:56:18;;;;;;;15.38;2.40;;;37.10;47.60;;;;;;5008000;28;20101;-69
2022/08/02 02:58:46;;;;;;;32.33;3.20;;;37.10;47.40;;;;;;5028182;28;21291;-67
2022/08/02 03:01:29;;;;;;;18.80;2.63;;;37.10;47.90;;;;;;5028195;28;20420;-69
2022/08/02 03:04:06;;;;;;;15.15;2.33;;;37.00;48.00;;;;;;5028036;28;20078;-68
2022/08/02 03:06:35;;;;;;;14.30;1.70;;;37.00;47.60;;;;;;5013671;28;20080;-68
2022/08/02 03:09:01;;;;;;;28.13;2.45;;;36.90;47.10;;;;;;5022378;28;20164;-67
2022/08/02 03:11:28;;;;;;;13.38;2.03;;;36.90;46.40;;;;;;5025254;28;20070;-66
2022/08/02 03:14:07;;;;;;;16.00;2.40;;;36.80;46.20;;;;;;5013088;28;20070;-64
2022/08/02 03:17:21;;;;;;;13.75;2.30;;;36.90;46.00;;;;;;5017895;28;20073;-69
2022/08/02 03:19:47;;;;;;;13.50;2.47;;;36.80;45.30;;;;;;5008516;28;20081;-68
2022/08/02 03:22:14;;;;;;;13.35;1.60;;;36.70;44.80;;;;;;5009689;28;20160;-66
2022/08/02 03:24:40;;;;;;;24.00;2.95;;;36.70;45.30;;;;;;5009831;28;20084;-67
2022/08/02 03:27:07;;;;;;;22.02;2.60;;;36.60;44.60;;;;;;5009634;28;20840;-69
2022/08/02 03:29:33;;;;;;;13.15;2.30;;;36.60;44.40;;;;;;5011060;28;20123;-69
2022/08/02 03:31:59;;;;;;;12.13;2.10;;;36.50;44.40;;;;;;5008142;28;20557;-69
2022/08/02 03:34:26;;;;;;;15.13;2.10;;;36.50;44.40;;;;;;5027057;28;20085;-68
2022/08/02 03:36:55;;;;;;;11.55;1.63;;;36.50;44.40;;;;;;5026720;28;20085;-67
2022/08/02 03:39:22;;;;;;;13.63;2.35;;;36.40;44.40;;;;;;5010588;28;20123;-66
2022/08/02 03:41:49;;;;;;;14.70;2.00;;;36.50;44.50;;;;;;5027718;28;20137;-69
2022/08/02 03:44:16;;;;;;;14.95;1.80;;;36.40;44.30;;;;;;5010185;28;20610;-67
2022/08/02 03:46:43;;;;;;;12.85;1.77;;;36.30;44.40;;;;;;5027246;28;20604;-69
2022/08/02 03:49:11;;;;;;;11.10;2.38;;;36.30;44.50;;;;;;5009399;28;20149;-69
2022/08/02 03:51:38;;;;;;;17.80;2.30;;;36.20;44.40;;;;;;5026685;28;20543;-68
2022/08/02 03:54:05;;;;;;;20.10;3.58;;;36.20;44.60;;;;;;4993623;28;20085;-67
2022/08/02 03:56:32;;;;;;;20.42;2.97;;;36.30;56.90;;;;;;5022013;28;20337;-68
2022/08/02 03:59:09;;;;;;;17.45;3.03;;;36.20;45.00;;;;;;5026222;28;20056;-71
2022/08/02 04:01:35;;;;;;;22.95;3.90;;;36.10;45.00;;;;;;5010481;28;20484;-68
2022/08/02 04:04:01;;;;;;;26.08;3.55;;;36.10;45.30;;;;;;5027140;28;20080;-68
2022/08/02 04:06:28;;;;;;;14.60;3.30;;;36.10;45.40;;;;;;5011982;28;20081;-69
2022/08/02 04:08:54;;;;;;;18.27;3.65;;;36.10;45.20;;;;;;5014736;28;20085;-69
2022/08/02 04:11:29;;;;;;;22.75;3.80;;;36.00;45.30;;;;;;5027291;28;20610;-69
2022/08/02 04:13:57;;;;;;;19.50;3.40;;;36.00;45.40;;;;;;5010764;28;20150;-69
2022/08/02 04:16:43;;;;;;;25.38;4.18;;;36.00;45.50;;;;;;5027248;28;20808;-68
2022/08/02 04:19:14;;;;;;;16.77;3.97;;;35.90;45.60;;;;;;5011323;28;20227;-68
2022/08/02 04:21:43;;;;;;;29.73;3.50;;;35.90;45.70;;;;;;5012118;28;20077;-70
2022/08/02 04:24:11;;;;;;;18.50;4.03;;;35.90;45.80;;;;;;5026523;28;20136;-67
2022/08/02 04:26:42;;;;;;;23.52;4.63;;;35.80;46.30;;;;;;5027619;28;20074;-68
2022/08/02 04:29:12;;;;;;;49.67;4.75;;;35.80;46.50;;;;;;5028068;28;20112;-68
2022/08/02 04:31:41;;;;;;;14.27;3.95;;;35.80;46.80;;;;;;5016590;28;20069;-69
2022/08/02 04:34:08;;;;;;;18.52;3.97;;;35.70;48.10;;;;;;5031609;28;20081;-69
2022/08/02 04:36:36;;;;;;;28.25;4.18;;;35.70;48.30;;;;;;5046868;28;20797;-68
2022/08/02 04:39:02;;;;;;;20.25;3.88;;;35.70;49.10;;;;;;5029427;28;20136;-70
2022/08/02 04:41:39;;;;;;;28.63;4.53;;;35.60;49.40;;;;;;5029216;28;20078;-68
2022/08/02 04:44:05;;;;;;;36.55;4.78;;;35.60;49.40;;;;;;5015026;28;20093;-68
2022/08/02 04:46:32;;;;;;;29.23;5.07;;;35.50;49.70;;;;;;5033102;28;20078;-70
2022/08/02 04:48:58;;;;;;;25.52;4.40;;;35.50;49.30;;;;;;5011946;28;20107;-69
2022/08/02 04:51:25;;;;;;;30.90;5.05;;;35.50;50.40;;;;;;5013647;28;20104;-68
2022/08/02 04:53:51;;;;;;;24.45;4.00;;;35.50;50.50;;;;;;5014140;28;20140;-69
2022/08/02 04:56:17;;;;;;;17.55;4.25;;;35.40;50.20;;;;;;5017650;28;20431;-68
2022/08/02 04:58:44;;;;;;;31.23;4.88;;;35.40;50.40;;;;;;5029340;28;20073;-68
2022/08/02 05:01:12;;;;;;;14.63;3.53;;;35.40;50.60;;;;;;5030464;28;21038;-69
2022/08/02 05:03:39;;;;;;;18.65;2.80;;;35.40;50.90;;;;;;5027799;28;20118;-69
2022/08/02 05:06:08;;;;;;;11.60;2.97;;;35.40;50.80;;;;;;5016409;28;20090;-68
2022/08/02 05:08:34;;;;;;;21.17;2.85;;;35.40;50.70;;;;;;5018488;28;20097;-69
2022/08/02 05:11:01;;;;;;;17.08;2.20;;;35.40;50.20;;;;;;5012732;28;20172;-69
2022/08/02 05:13:27;;;;;;;10.52;2.00;;;35.40;50.00;;;;;;5019099;28;20443;-72
2022/08/02 05:15:57;;;;;;;15.18;2.35;;;35.40;49.90;;;;;;5025471;28;20068;-69
2022/08/02 05:18:24;;;;;;;9.38;2.30;;;35.50;49.70;;;;;;5022467;28;20073;-67
2022/08/02 05:20:50;;;;;;;14.80;2.53;;;35.40;49.60;;;;;;4996515;28;20160;-68
2022/08/02 05:23:16;;;;;;;18.98;2.38;;;35.40;49.60;;;;;;5026455;28;20073;-68
2022/08/02 05:25:43;;;;;;;9.93;2.33;;;35.40;49.40;;;;;;5011049;28;20095;-69
2022/08/02 05:28:09;;;;;;;19.65;5.10;;;35.40;49.60;;;;;;5027516;28;20181;-69
2022/08/02 05:30:35;;;;;;;20.75;6.55;;;35.40;49.60;;;;;;5015735;28;20078;-71
2022/08/02 05:33:03;;;;;;;9.90;2.40;;;35.40;49.70;;;;;;5016312;28;20081;-68
2022/08/02 05:35:29;;;;;;;9.50;2.55;;;35.30;49.80;;;;;;5025223;28;20076;-69
2022/08/02 05:37:56;;;;;;;11.20;2.40;;;35.30;49.30;;;;;;5022457;28;20529;-70
2022/08/02 05:40:22;;;;;;;12.75;3.45;;;35.30;48.70;;;;;;5022645;28;20100;-69
2022/08/02 05:42:49;;;;;;;12.43;3.03;;;35.30;47.50;;;;;;5019872;28;20125;-70
2022/08/02 05:45:16;;;;;;;6.45;2.17;;;35.30;46.90;;;;;;5016319;28;20157;-70
2022/08/02 05:47:43;;;;;;;11.38;2.63;;;35.30;46.60;;;;;;5027114;28;20108;-70
2022/08/02 05:50:10;;;;;;;14.48;2.63;;;35.20;45.20;;;;;;5015737;28;20090;-70
2022/08/02 05:52:50;;;;;;;10.93;2.25;;;35.20;44.60;;;;;;5011892;28;20067;-70
2022/08/02 05:55:25;;;;;;;13.77;2.45;;;35.20;43.50;;;;;;5045549;28;20090;-69
2022/08/02 05:57:54;;;;;;;10.40;2.63;;;35.20;43.20;;;;;;5015575;28;20078;-70
2022/08/02 06:00:21;;;;;;;10.30;2.33;;;35.20;42.30;;;;;;5025579;28;20077;-69
2022/08/02 06:02:54;;;;;;;12.18;2.60;;;35.10;42.10;;;;;;5019126;28;20146;-69
2022/08/02 06:05:21;;;;;;;14.63;2.45;;;35.10;41.90;;;;;;5024797;28;20086;-70
2022/08/02 06:07:49;;;;;;;19.70;2.90;;;35.10;41.80;;;;;;5014674;28;20446;-70
2022/08/02 06:10:20;;;;;;;16.10;2.78;;;35.10;42.20;;;;;;5019095;28;20545;-70
2022/08/02 06:12:50;;;;;;;16.13;3.38;;;35.10;42.10;;;;;;5020674;28;20109;-70
2022/08/02 06:15:18;;;;;;;17.00;2.47;;;35.00;42.20;;;;;;5016325;28;20085;-72
2022/08/02 06:17:46;;;;;;;15.82;2.55;;;35.00;42.30;;;;;;5014695;28;20084;-69
2022/08/02 06:20:13;;;;;;;10.50;2.72;;;34.90;42.50;;;;;;5026818;28;20093;-71
2022/08/02 06:22:44;;;;;;;14.35;3.50;;;34.90;42.20;;;;;;5026548;28;20144;-70
2022/08/02 06:25:12;;;;;;;11.98;2.38;;;34.90;42.20;;;;;;5027387;28;20077;-70
2022/08/02 06:27:40;;;;;;;15.45;3.08;;;34.90;42.40;;;;;;5014325;28;20123;-72
2022/08/02 06:30:08;;;;;;;34.95;3.15;;;34.90;42.90;;;;;;5026739;28;20069;-68
2022/08/02 06:32:35;;;;;;;28.00;3.03;;;34.80;42.80;;;;;;5011507;28;20842;-73
2022/08/02 06:35:04;;;;;;;17.85;2.88;;;34.80;43.00;;;;;;5027108;28;20080;-73
2022/08/02 06:37:40;;;;;;;57.22;6.20;;;34.80;42.40;;;;;;5032966;28;20455;-72
2022/08/02 06:40:22;;;;;;;17.75;2.90;;;34.80;43.00;;;;;;5019971;28;20112;-72
2022/08/02 06:42:57;;;;;;;17.55;2.72;;;34.70;42.90;;;;;;5012763;28;20489;-67
2022/08/02 06:45:23;;;;;;;13.33;2.67;;;34.60;42.70;;;;;;5010951;28;20566;-68
2022/08/02 06:47:50;;;;;;;10.10;2.65;;;34.60;42.70;;;;;;5012988;28;20348;-69
2022/08/02 06:50:16;;;;;;;23.67;2.67;;;34.60;42.90;;;;;;5026392;28;20086;-67
2022/08/02 06:52:43;;;;;;;11.98;2.72;;;34.60;42.90;;;;;;5026279;28;20419;-68
2022/08/02 06:55:09;;;;;;;12.25;2.67;;;34.60;43.10;;;;;;5013564;28;20086;-68
2022/08/02 06:57:36;;;;;;;9.65;2.53;;;34.60;42.70;;;;;;5020330;28;20079;-68
2022/08/02 07:00:08;;;;;;;10.93;2.70;;;34.50;61.20;;;;;;5017251;28;20089;-68
2022/08/02 07:02:40;;;;;;;16.02;2.95;;;34.60;43.20;;;;;;5023876;28;20059;-67
2022/08/02 07:05:07;;;;;;;15.18;3.15;;;34.60;42.70;;;;;;5025699;28;20069;-68
2022/08/02 07:07:34;;;;;;;17.25;3.28;;;34.50;43.50;;;;;;5017170;28;20108;-68
2022/08/02 07:10:00;;;;;;;22.75;2.78;;;34.50;43.30;;;;;;5016853;28;20145;-69
2022/08/02 07:12:31;;;;;;;24.95;3.72;;;34.20;41.90;;;;;;5014852;28;20120;-70
2022/08/02 07:15:03;;;;;;;11.50;3.10;;;34.40;42.60;;;;;;5023872;28;20042;-69
2022/08/02 07:17:30;;;;;;;23.35;3.85;;;34.40;42.90;;;;;;5018400;28;20085;-68
2022/08/02 07:19:57;;;;;;;24.60;5.30;;;34.40;43.40;;;;;;5011182;28;20132;-68
2022/08/02 07:22:25;;;;;;;30.73;5.00;;;34.10;55.00;;;;;;5019701;28;20431;-69
2022/08/02 07:24:53;;;;;;;29.65;4.22;;;34.30;42.70;;;;;;5020718;28;20026;-69
2022/08/02 07:27:20;;;;;;;27.67;5.00;;;34.30;43.10;;;;;;5016817;28;20778;-69
2022/08/02 07:29:46;;;;;;;24.13;4.15;;;34.30;43.60;;;;;;5012191;28;20071;-68
2022/08/02 07:32:17;;;;;;;31.58;4.80;;;34.30;43.30;;;;;;5024416;28;20444;-69
2022/08/02 07:34:45;;;;;;;16.70;3.35;;;34.20;43.70;;;;;;5010879;28;20105;-67
2022/08/02 07:37:11;;;;;;;20.00;3.40;;;34.20;43.60;;;;;;5013758;28;20159;-68
2022/08/02 07:39:37;;;;;;;18.95;3.63;;;34.20;43.80;;;;;;5017050;28;20082;-68
2022/08/02 07:42:04;;;;;;;19.90;3.70;;;34.20;43.10;;;;;;5025089;28;20074;-68
2022/08/02 07:44:33;;;;;;;23.48;3.72;;;34.20;43.30;;;;;;5013533;28;20103;-68
2022/08/02 07:47:04;;;;;;;22.45;3.63;;;34.20;43.80;;;;;;5012019;28;20078;-68
2022/08/02 07:49:31;;;;;;;20.90;3.95;;;34.20;43.80;;;;;;5026373;28;20195;-68
2022/08/02 07:51:57;;;;;;;16.65;3.30;;;34.10;57.10;;;;;;5026731;28;20073;-68
2022/08/02 07:54:24;;;;;;;19.17;2.50;;;33.60;52.50;;;;;;5014695;28;20022;-68
2022/08/02 07:56:52;;;;;;;19.20;2.80;;;34.10;43.90;;;;;;5017830;28;20022;-68
2022/08/02 07:59:18;;;;;;;14.05;3.42;;;34.10;43.80;;;;;;5017442;28;20086;-69
2022/08/02 08:01:45;;;;;;;16.33;2.80;;;34.00;44.20;;;;;;5013411;28;20077;-67
2022/08/02 08:04:12;;;;;;;12.52;3.17;;;34.00;43.70;;;;;;5016322;28;20081;-67
2022/08/02 08:06:38;;;;;;;18.98;3.45;;;34.10;43.90;;;;;;5029773;28;20110;-67
2022/08/02 08:09:05;;;;;;;22.60;2.90;;;34.00;44.10;;;;;;5031390;28;20098;-68
2022/08/02 08:11:31;;;;;;;33.90;3.67;;;33.90;44.40;;;;;;5014697;28;20074;-68
2022/08/02 08:13:57;;;;;;;14.38;3.42;;;33.90;44.60;;;;;;5016439;28;20074;-67
2022/08/02 08:16:27;;;;;;;21.73;3.63;;;33.90;44.50;;;;;;5019981;28;20160;-68
2022/08/02 08:18:55;;;;;;;16.90;3.00;;;33.90;44.50;;;;;;5034090;28;20157;-68
2022/08/02 08:21:21;;;;;;;19.27;3.20;;;33.80;44.40;;;;;;5023999;28;20106;-67
2022/08/02 08:23:47;;;;;;;19.38;3.53;;;33.80;44.20;;;;;;5016171;28;20078;-68
2022/08/02 08:26:14;;;;;;;22.08;3.30;;;33.80;44.30;;;;;;5015930;28;20169;-67
2022/08/02 08:28:41;;;;;;;21.25;3.28;;;33.80;44.80;;;;;;5014460;28;20049;-68
2022/08/02 08:31:08;;;;;;;16.70;2.92;;;33.80;44.10;;;;;;5014546;28;20070;-67
2022/08/02 08:33:34;;;;;;;14.77;2.63;;;33.70;44.10;;;;;;5011984;28;20105;-68
2022/08/02 08:36:01;;;;;;;17.02;2.85;;;33.70;43.90;;;;;;5013912;28;20089;-68
2022/08/02 08:38:27;;;;;;;17.30;3.08;;;33.70;44.50;;;;;;5015693;28;20522;-66
2022/08/02 08:40:54;;;;;;;17.35;2.50;;;33.70;44.50;;;;;;5018132;28;20081;-67
2022/08/02 08:43:20;;;;;;;17.80;3.10;;;33.70;44.50;;;;;;5020148;28;20165;-67
2022/08/02 08:45:48;;;;;;;13.43;2.88;;;33.70;44.20;;;;;;5013910;28;21534;-75
2022/08/02 08:48:17;;;;;;;9.52;2.50;;;33.70;44.30;;;;;;5016787;28;20196;-69
2022/08/02 08:51:09;;;;;;;15.50;3.03;;;33.70;43.90;;;;;;5019721;28;20078;-68
2022/08/02 08:53:41;;;;;;;23.75;3.17;;;33.70;44.30;;;;;;5029469;28;20085;-67
2022/08/02 08:56:08;;;;;;;11.07;2.33;;;33.70;44.90;;;;;;5015369;28;20078;-67
2022/08/02 08:58:35;;;;;;;14.35;2.40;;;33.60;44.40;;;;;;5014550;28;20093;-67
2022/08/02 09:01:01;;;;;;;9.38;2.28;;;33.60;44.80;;;;;;5024698;28;20094;-67
2022/08/02 09:03:28;;;;;;;10.20;2.35;;;33.60;44.70;;;;;;5017484;28;20444;-70
2022/08/02 09:05:57;;;;;;;16.20;2.45;;;33.60;44.60;;;;;;5035448;28;20097;-69
2022/08/02 09:08:24;;;;;;;10.60;2.70;;;33.60;45.30;;;;;;5015092;28;20089;-67
2022/08/02 09:10:51;;;;;;;15.93;2.80;;;33.60;44.90;;;;;;5029744;28;20524;-70
2022/08/02 09:13:21;;;;;;;10.70;2.03;;;33.60;44.50;;;;;;5017521;28;20525;-67
2022/08/02 09:16:03;;;;;;;13.23;2.05;;;33.50;44.70;;;;;;5028243;28;20165;-68
2022/08/02 09:18:40;;;;;;;14.43;2.63;;;33.50;44.90;;;;;;5014873;28;20078;-69
2022/08/02 09:21:08;;;;;;;22.15;2.97;;;33.50;44.50;;;;;;5016404;28;20161;-67
2022/08/02 09:23:37;;;;;;;19.80;2.90;;;33.40;44.50;;;;;;5015428;28;20081;-67
2022/08/02 09:26:08;;;;;;;13.75;2.45;;;33.40;44.90;;;;;;5029378;28;20078;-68
2022/08/02 09:28:37;;;;;;;9.82;2.40;;;33.40;45.00;;;;;;5016253;28;20090;-67
2022/08/02 09:31:09;;;;;;;16.05;3.00;;;33.40;45.30;;;;;;5013562;28;20065;-67
2022/08/02 09:33:38;;;;;;;13.77;2.95;;;33.30;45.60;;;;;;5015849;28;20078;-67
2022/08/02 09:36:11;;;;;;;18.45;2.60;;;33.30;45.60;;;;;;5009415;28;20521;-67
2022/08/02 09:38:38;;;;;;;11.77;2.90;;;33.30;46.30;;;;;;5012822;28;20094;-68
2022/08/02 09:41:18;;;;;;;15.15;2.38;;;33.20;46.40;;;;;;5029034;28;20086;-68
2022/08/02 09:43:45;;;;;;;20.40;2.65;;;33.10;46.30;;;;;;5015107;28;20132;-67
2022/08/02 09:46:13;;;;;;;13.07;2.85;;;33.20;45.40;;;;;;5014540;28;20070;-67
2022/08/02 09:49:03;;;;;;;19.50;2.65;;;33.10;46.40;;;;;;5016684;28;20117;-68
2022/08/02 09:51:38;;;;;;;13.52;2.45;;;33.10;45.50;;;;;;5021016;28;20483;-68
2022/08/02 09:54:07;;;;;;;19.80;2.83;;;33.00;46.20;;;;;;5018217;28;20084;-67
2022/08/02 09:56:49;;;;;;;19.17;2.80;;;33.00;46.00;;;;;;5017522;28;20114;-68
2022/08/02 09:59:17;;;;;;;11.15;2.78;;;33.00;46.20;;;;;;5016455;28;20080;-69
2022/08/02 10:01:46;;;;;;;19.73;2.85;;;32.90;46.50;;;;;;5030563;28;20082;-68
2022/08/02 10:04:13;;;;;;;12.98;3.03;;;32.90;46.30;;;;;;5027059;28;20543;-68
2022/08/02 10:06:43;;;;;;;21.40;3.55;;;32.90;46.40;;;;;;5026129;28;20110;-68
2022/08/02 10:09:12;;;;;;;27.73;3.38;;;32.80;46.90;;;;;;5012650;28;20581;-68
2022/08/02 10:11:40;;;;;;;20.45;3.95;;;32.80;47.20;;;;;;5026910;28;20545;-68
2022/08/02 10:14:08;;;;;;;20.92;4.32;;;32.80;48.90;;;;;;5013077;28;20077;-68
2022/08/02 10:16:37;;;;;;;27.05;4.60;;;32.80;49.30;;;;;;5018367;28;20603;-68
2022/08/02 10:19:04;;;;;;;22.27;3.88;;;32.60;50.60;;;;;;5025383;28;20085;-69
2022/08/02 10:21:39;;;;;;;20.17;4.13;;;32.60;50.50;;;;;;5018359;28;20540;-68
2022/08/02 10:24:17;;;;;;;25.83;4.72;;;32.70;50.70;;;;;;5024261;28;21246;-68
2022/08/02 10:26:45;;;;;;;20.33;4.35;;;32.70;52.40;;;;;;5013793;28;20156;-68
2022/08/02 10:29:16;;;;;;;20.08;4.65;;;32.60;53.10;;;;;;5021817;28;20090;-68
2022/08/02 10:31:52;;;;;;;19.15;4.18;;;32.40;54.30;;;;;;5021897;28;20169;-67
2022/08/02 10:34:23;;;;;;;12.38;3.78;;;32.30;55.50;;;;;;5011669;28;20062;-68
2022/08/02 10:36:51;;;;;;;12.07;4.18;;;32.30;56.80;;;;;;5016711;28;20084;-67
2022/08/02 10:39:18;;;;;;;12.43;4.03;;;32.30;58.20;;;;;;5015776;28;20539;-67
2022/08/02 10:41:49;;;;;;;10.43;4.22;;;32.10;58.30;;;;;;5011535;28;20169;-67
2022/08/02 10:44:32;;;;;;;16.70;4.35;;;32.00;59.40;;;;;;5026034;28;20074;-67
2022/08/02 10:47:13;;;;;;;18.98;4.40;;;32.00;60.00;;;;;;5016947;28;20148;-67
2022/08/02 10:49:53;;;;;;;15.82;5.20;;;32.00;60.10;;;;;;5013944;28;20109;-65
2022/08/02 10:52:24;;;;;;;17.27;4.97;;;31.90;60.70;;;;;;5024906;28;20072;-66
2022/08/02 10:54:55;;;;;;;12.50;4.45;;;31.80;60.90;;;;;;5012232;28;20448;-68
2022/08/02 10:57:22;;;;;;;15.65;4.85;;;31.80;61.30;;;;;;5021224;28;20534;-67
2022/08/02 10:59:53;;;;;;;18.40;4.97;;;31.80;61.40;;;;;;5026869;28;20079;-67
2022/08/02 11:02:43;;;;;;;21.35;4.90;;;31.60;62.20;;;;;;5009958;28;20398;-66
2022/08/02 11:05:13;;;;;;;18.88;4.95;;;31.70;62.40;;;;;;5016496;28;20078;-69
2022/08/02 11:07:48;;;;;;;15.77;4.80;;;31.60;62.50;;;;;;5020938;28;20108;-66
2022/08/02 11:10:35;;;;;;;17.23;4.43;;;31.60;62.70;;;;;;5041028;28;20167;-65
2022/08/02 11:13:12;;;;;;;;;;;31.50;62.90;;;;;;5031283;28;20071;-66
2022/08/02 11:15:54;;;;;;;16.67;4.47;;;31.50;63.20;;;;;;5010662;28;20416;-66
2022/08/02 11:18:22;;;;;;;17.48;4.32;;;31.50;63.70;;;;;;5025355;28;20090;-66
2022/08/02 11:21:24;;;;;;;15.30;4.47;;;31.40;64.30;;;;;;5025437;28;20132;-67
2022/08/02 11:23:51;;;;;;;18.73;5.45;;;31.40;65.20;;;;;;5022322;28;20080;-67
2022/08/02 11:26:30;;;;;;;9.68;3.83;;;31.40;65.10;;;;;;5012209;28;20090;-67
2022/08/02 11:29:04;;;;;;;15.63;4.70;;;31.40;65.30;;;;;;5013767;28;20144;-67
2022/08/02 11:31:42;;;;;;;10.70;4.50;;;31.30;66.10;;;;;;5026806;28;20079;-67
2022/08/02 11:34:10;;;;;;;14.05;4.32;;;31.20;67.10;;;;;;5012739;28;20073;-67
2022/08/02 11:36:50;;;;;;;18.30;4.32;;;31.30;66.50;;;;;;5015301;28;20026;-66
2022/08/02 11:39:20;;;;;;;21.77;5.45;;;31.30;67.10;;;;;;5031306;28;20117;-67
2022/08/02 11:41:50;;;;;;;18.38;5.53;;;31.30;67.50;;;;;;5017367;28;20521;-67
2022/08/02 11:44:17;;;;;;;17.00;4.95;;;31.30;67.50;;;;;;5028480;28;20061;-66
2022/08/02 11:46:44;;;;;;;14.65;4.53;;;31.20;67.40;;;;;;5028474;28;20074;-67
2022/08/02 11:49:16;;;;;;;11.13;4.53;;;31.30;67.70;;;;;;5018348;28;20192;-66
2022/08/02 11:51:53;;;;;;;18.85;4.53;;;31.30;67.90;;;;;;5017713;28;20045;-66
2022/08/02 11:54:24;;;;;;;11.95;4.63;;;31.20;67.90;;;;;;5029508;28;20088;-67
2022/08/02 11:56:51;;;;;;;12.30;4.28;;;31.20;68.40;;;;;;5017021;28;20125;-68
2022/08/02 11:59:18;;;;;;;22.48;5.78;;;31.20;69.20;;;;;;5028758;28;20042;-68
2022/08/02 12:01:44;;;;;;;23.25;4.40;;;31.10;69.80;;;;;;5018702;28;20050;-69
2022/08/02 12:04:11;;;;;;;22.67;4.82;;;31.10;70.20;;;;;;5014959;28;20052;-67
2022/08/02 12:06:37;;;;;;;14.50;4.78;;;31.10;70.40;;;;;;5015949;28;20048;-68
2022/08/02 12:09:12;;;;;;;17.67;4.78;;;31.10;71.70;;;;;;5018279;28;20084;-67
2022/08/02 12:11:38;;;;;;;13.30;4.55;;;31.10;72.70;;;;;;5028341;28;20073;-68
2022/08/02 12:14:05;;;;;;;15.63;4.63;;;31.10;73.40;;;;;;5016101;28;20097;-67
2022/08/02 12:19:26;;;;;;;15.38;5.65;;;31.10;74.10;;;;;;5018576;28;20153;-66
2022/08/02 12:22:16;;;;;;;17.52;6.50;;;31.00;74.80;;;;;;5019585;28;20081;-68
2022/08/02 12:24:49;;;;;;;24.33;6.65;;;31.00;74.60;;;;;;5014782;28;20454;-68
2022/08/02 12:27:36;;;;;;;20.88;6.32;;;31.00;75.20;;;;;;5012555;28;20133;-68
2022/08/02 12:30:08;;;;;;;18.77;6.47;;;31.00;75.40;;;;;;5013895;28;20077;-66
2022/08/02 12:32:35;;;;;;;20.08;6.90;;;31.00;75.40;;;;;;5016937;28;20090;-67
2022/08/02 12:35:06;;;;;;;22.90;7.65;;;31.00;75.80;;;;;;5010282;28;20075;-67
2022/08/02 12:37:33;;;;;;;17.90;6.68;;;30.90;76.20;;;;;;5042884;28;20070;-67
2022/08/02 12:40:20;;;;;;;20.38;6.97;;;30.90;76.80;;;;;;5027915;28;20095;-66
2022/08/02 12:42:56;;;;;;;19.63;6.78;;;30.90;76.80;;;;;;5015566;28;20153;-67
2022/08/02 12:45:23;;;;;;;25.77;7.50;;;30.90;77.10;;;;;;5015832;28;20172;-67
2022/08/02 12:47:52;;;;;;;24.77;7.85;;;30.90;77.00;;;;;;5026845;28;20105;-69
2022/08/02 12:50:23;;;;;;;28.20;8.02;;;30.90;77.50;;;;;;5012991;28;20078;-68
2022/08/02 12:53:01;;;;;;;17.05;7.07;;;30.90;77.80;;;;;;5045039;28;20076;-68
2022/08/02 12:55:28;;;;;;;23.08;7.00;;;30.90;78.20;;;;;;5027322;28;20078;-67
2022/08/02 12:58:04;;;;;;;28.67;7.47;;;30.90;78.10;;;;;;5028310;28;20084;-67